Terminal Aerodrome Forecast
Issued by NWS

Home | Current Version | Previous Version | Text Only | Print | Product List | Glossary On
Versions: 1 2 3 4 5 6 7 8 9 10 11 12 13 14 15 16 17 18 19 20 21 22 23 24 25 26 27 28 29 30 31
000
FTUS45 KGJT 201136
TAFMTJ
TAF
KMTJ 201136Z 2012/2112 VRB03KT P6SM VCSH BKN045 OVC060
     FM201500 VRB03KT P6SM SCT060 BKN090
     FM201800 35005KT P6SM SCT080 SCT110
     FM202100 23010KT P6SM SCT080 BKN110
     FM210200 15006KT P6SM BKN110
     FM210600 13005KT P6SM SCT110=

USA.gov is the U.S. government's official web portal to all federal, state and local government web resources and services.